sensor_id;sensor_type;location;lat;lon;timestamp;temperature;humidity
6421;DHT22;3243;50.958;7.012;2023-06-19T00:00:00;21.50;99.90
6421;DHT22;3243;50.958;7.012;2023-06-19T00:02:26;21.50;99.90
6421;DHT22;3243;50.958;7.012;2023-06-19T00:07:21;21.40;99.90
6421;DHT22;3243;50.958;7.012;2023-06-19T00:09:48;21.40;99.90
6421;DHT22;3243;50.958;7.012;2023-06-19T00:12:15;21.40;99.90
6421;DHT22;3243;50.958;7.012;2023-06-19T00:14:42;21.30;99.90
6421;DHT22;3243;50.958;7.012;2023-06-19T00:17:09;21.30;99.90
6421;DHT22;3243;50.958;7.012;2023-06-19T00:19:36;21.20;99.90
6421;DHT22;3243;50.958;7.012;2023-06-19T00:22:06;21.20;99.90
6421;DHT22;3243;50.958;7.012;2023-06-19T00:24:33;21.20;99.90
6421;DHT22;3243;50.958;7.012;2023-06-19T00:27:00;21.20;99.90
6421;DHT22;3243;50.958;7.012;2023-06-19T00:29:29;21.30;99.90
6421;DHT22;3243;50.958;7.012;2023-06-19T00:31:56;21.20;99.90
6421;DHT22;3243;50.958;7.012;2023-06-19T00:34:23;21.20;99.90
6421;DHT22;3243;50.958;7.012;2023-06-19T00:36:51;21.20;99.90
6421;DHT22;3243;50.958;7.012;2023-06-19T00:39:23;21.20;99.90
6421;DHT22;3243;50.958;7.012;2023-06-19T00:41:52;21.20;99.90
6421;DHT22;3243;50.958;7.012;2023-06-19T00:44:19;21.20;99.90
6421;DHT22;3243;50.958;7.012;2023-06-19T00:46:46;21.20;99.90
6421;DHT22;3243;50.958;7.012;2023-06-19T00:49:14;21.20;99.90
6421;DHT22;3243;50.958;7.012;2023-06-19T00:51:41;21.20;99.90
6421;DHT22;3243;50.958;7.012;2023-06-19T00:54:08;21.20;99.90
6421;DHT22;3243;50.958;7.012;2023-06-19T00:56:37;21.20;99.90
6421;DHT22;3243;50.958;7.012;2023-06-19T00:59:08;21.20;99.90
6421;DHT22;3243;50.958;7.012;2023-06-19T01:01:35;21.20;99.90
6421;DHT22;3243;50.958;7.012;2023-06-19T01:04:02;21.40;99.90
6421;DHT22;3243;50.958;7.012;2023-06-19T01:06:38;21.40;99.90
6421;DHT22;3243;50.958;7.012;2023-06-19T01:09:10;21.40;99.90
6421;DHT22;3243;50.958;7.012;2023-06-19T01:11:43;21.40;99.90
6421;DHT22;3243;50.958;7.012;2023-06-19T01:14:28;21.50;99.90
6421;DHT22;3243;50.958;7.012;2023-06-19T01:16:57;21.50;99.90
6421;DHT22;3243;50.958;7.012;2023-06-19T01:19:24;21.50;99.90
6421;DHT22;3243;50.958;7.012;2023-06-19T01:21:52;21.50;99.90
6421;DHT22;3243;50.958;7.012;2023-06-19T01:24:19;21.50;99.90
6421;DHT22;3243;50.958;7.012;2023-06-19T01:26:46;21.40;99.90
6421;DHT22;3243;50.958;7.012;2023-06-19T01:29:14;21.40;99.90
6421;DHT22;3243;50.958;7.012;2023-06-19T01:32:05;21.40;99.90
6421;DHT22;3243;50.958;7.012;2023-06-19T01:34:33;21.30;99.90
6421;DHT22;3243;50.958;7.012;2023-06-19T01:37:05;21.30;99.90
6421;DHT22;3243;50.958;7.012;2023-06-19T01:39:33;21.20;99.90
6421;DHT22;3243;50.958;7.012;2023-06-19T01:42:03;21.10;99.90
6421;DHT22;3243;50.958;7.012;2023-06-19T01:44:30;21.10;99.90
6421;DHT22;3243;50.958;7.012;2023-06-19T01:46:57;21.00;99.90
6421;DHT22;3243;50.958;7.012;2023-06-19T01:49:24;21.00;99.90
6421;DHT22;3243;50.958;7.012;2023-06-19T01:51:51;20.90;99.90
6421;DHT22;3243;50.958;7.012;2023-06-19T01:54:18;20.90;99.90
6421;DHT22;3243;50.958;7.012;2023-06-19T01:56:44;20.90;99.90
6421;DHT22;3243;50.958;7.012;2023-06-19T01:59:11;21.00;99.90
6421;DHT22;3243;50.958;7.012;2023-06-19T02:01:38;20.90;99.90
6421;DHT22;3243;50.958;7.012;2023-06-19T02:04:05;21.00;99.90
6421;DHT22;3243;50.958;7.012;2023-06-19T02:06:32;21.00;99.90
6421;DHT22;3243;50.958;7.012;2023-06-19T02:08:58;20.90;99.90
6421;DHT22;3243;50.958;7.012;2023-06-19T02:11:25;21.00;99.90
6421;DHT22;3243;50.958;7.012;2023-06-19T02:13:52;20.90;99.90
6421;DHT22;3243;50.958;7.012;2023-06-19T02:16:19;20.90;99.90
6421;DHT22;3243;50.958;7.012;2023-06-19T02:18:46;20.90;99.90
6421;DHT22;3243;50.958;7.012;2023-06-19T02:21:12;20.90;99.90
6421;DHT22;3243;50.958;7.012;2023-06-19T02:23:39;20.90;99.90
6421;DHT22;3243;50.958;7.012;2023-06-19T02:26:06;21.00;99.90
6421;DHT22;3243;50.958;7.012;2023-06-19T02:28:32;21.00;99.90
6421;DHT22;3243;50.958;7.012;2023-06-19T02:30:59;21.00;99.90
6421;DHT22;3243;50.958;7.012;2023-06-19T02:33:26;21.00;99.90
6421;DHT22;3243;50.958;7.012;2023-06-19T02:35:53;21.00;99.90
6421;DHT22;3243;50.958;7.012;2023-06-19T02:38:26;20.90;99.90
6421;DHT22;3243;50.958;7.012;2023-06-19T02:40:53;20.90;99.90
6421;DHT22;3243;50.958;7.012;2023-06-19T02:43:19;21.00;99.90
6421;DHT22;3243;50.958;7.012;2023-06-19T02:45:46;21.00;99.90
6421;DHT22;3243;50.958;7.012;2023-06-19T02:48:13;21.00;99.90
6421;DHT22;3243;50.958;7.012;2023-06-19T02:50:40;21.00;99.90
6421;DHT22;3243;50.958;7.012;2023-06-19T02:53:07;21.00;99.90
6421;DHT22;3243;50.958;7.012;2023-06-19T02:55:34;21.10;99.90
6421;DHT22;3243;50.958;7.012;2023-06-19T02:58:01;21.10;99.90
6421;DHT22;3243;50.958;7.012;2023-06-19T03:00:28;21.10;99.90
6421;DHT22;3243;50.958;7.012;2023-06-19T03:02:55;21.00;99.90
6421;DHT22;3243;50.958;7.012;2023-06-19T03:05:22;21.00;99.90
6421;DHT22;3243;50.958;7.012;2023-06-19T03:07:49;20.90;99.90
6421;DHT22;3243;50.958;7.012;2023-06-19T03:10:15;20.80;99.90
6421;DHT22;3243;50.958;7.012;2023-06-19T03:12:43;20.80;99.90
6421;DHT22;3243;50.958;7.012;2023-06-19T03:15:10;20.80;99.90
6421;DHT22;3243;50.958;7.012;2023-06-19T03:17:37;20.70;99.90
6421;DHT22;3243;50.958;7.012;2023-06-19T03:20:04;20.70;99.90
6421;DHT22;3243;50.958;7.012;2023-06-19T03:22:32;20.70;99.90
6421;DHT22;3243;50.958;7.012;2023-06-19T03:24:59;20.60;99.90
6421;DHT22;3243;50.958;7.012;2023-06-19T03:27:26;20.60;99.90
6421;DHT22;3243;50.958;7.012;2023-06-19T03:29:53;20.60;99.90
6421;DHT22;3243;50.958;7.012;2023-06-19T03:32:20;20.50;99.90
6421;DHT22;3243;50.958;7.012;2023-06-19T03:34:47;20.40;99.90
6421;DHT22;3243;50.958;7.012;2023-06-19T03:37:14;20.40;99.90
6421;DHT22;3243;50.958;7.012;2023-06-19T03:39:42;20.30;99.90
6421;DHT22;3243;50.958;7.012;2023-06-19T03:42:09;20.20;99.90
6421;DHT22;3243;50.958;7.012;2023-06-19T03:44:35;20.20;99.90
6421;DHT22;3243;50.958;7.012;2023-06-19T03:47:02;20.20;99.90
6421;DHT22;3243;50.958;7.012;2023-06-19T03:49:29;20.20;99.90
6421;DHT22;3243;50.958;7.012;2023-06-19T03:51:56;20.20;99.90
6421;DHT22;3243;50.958;7.012;2023-06-19T03:54:23;20.20;99.90
6421;DHT22;3243;50.958;7.012;2023-06-19T03:56:49;20.30;99.90
6421;DHT22;3243;50.958;7.012;2023-06-19T03:59:16;20.30;99.90
6421;DHT22;3243;50.958;7.012;2023-06-19T04:01:43;20.30;99.90
6421;DHT22;3243;50.958;7.012;2023-06-19T04:04:10;20.30;99.90
6421;DHT22;3243;50.958;7.012;2023-06-19T04:06:37;20.50;99.90
6421;DHT22;3243;50.958;7.012;2023-06-19T04:09:03;20.60;99.90
6421;DHT22;3243;50.958;7.012;2023-06-19T04:11:31;20.70;99.90
6421;DHT22;3243;50.958;7.012;2023-06-19T04:13:58;20.80;99.90
6421;DHT22;3243;50.958;7.012;2023-06-19T04:16:24;21.00;99.90
6421;DHT22;3243;50.958;7.012;2023-06-19T04:18:51;21.10;99.90
6421;DHT22;3243;50.958;7.012;2023-06-19T04:21:18;21.20;99.90
6421;DHT22;3243;50.958;7.012;2023-06-19T04:23:45;21.20;99.90
6421;DHT22;3243;50.958;7.012;2023-06-19T04:26:12;21.30;99.90
6421;DHT22;3243;50.958;7.012;2023-06-19T04:28:38;21.30;99.90
6421;DHT22;3243;50.958;7.012;2023-06-19T04:31:06;21.20;99.90
6421;DHT22;3243;50.958;7.012;2023-06-19T04:33:32;21.20;99.90
6421;DHT22;3243;50.958;7.012;2023-06-19T04:35:59;21.20;99.90
6421;DHT22;3243;50.958;7.012;2023-06-19T04:38:27;21.20;99.90
6421;DHT22;3243;50.958;7.012;2023-06-19T04:40:53;21.20;99.90
6421;DHT22;3243;50.958;7.012;2023-06-19T04:43:20;21.20;99.90
6421;DHT22;3243;50.958;7.012;2023-06-19T04:45:47;21.20;99.90
6421;DHT22;3243;50.958;7.012;2023-06-19T04:48:14;21.20;99.90
6421;DHT22;3243;50.958;7.012;2023-06-19T04:50:40;21.20;99.90
6421;DHT22;3243;50.958;7.012;2023-06-19T04:53:07;21.20;99.90
6421;DHT22;3243;50.958;7.012;2023-06-19T04:55:34;21.20;99.90
6421;DHT22;3243;50.958;7.012;2023-06-19T04:58:01;21.20;99.90
6421;DHT22;3243;50.958;7.012;2023-06-19T05:00:28;21.20;99.90
6421;DHT22;3243;50.958;7.012;2023-06-19T05:02:54;21.20;99.90
6421;DHT22;3243;50.958;7.012;2023-06-19T05:05:30;21.10;99.90
6421;DHT22;3243;50.958;7.012;2023-06-19T05:07:57;21.00;99.90
6421;DHT22;3243;50.958;7.012;2023-06-19T05:10:23;21.00;99.90
6421;DHT22;3243;50.958;7.012;2023-06-19T05:12:51;21.10;99.90
6421;DHT22;3243;50.958;7.012;2023-06-19T05:15:17;21.10;99.90
6421;DHT22;3243;50.958;7.012;2023-06-19T05:17:44;21.20;99.90
6421;DHT22;3243;50.958;7.012;2023-06-19T05:20:13;21.30;99.90
6421;DHT22;3243;50.958;7.012;2023-06-19T05:22:39;21.40;99.90
6421;DHT22;3243;50.958;7.012;2023-06-19T05:25:07;21.40;99.90
6421;DHT22;3243;50.958;7.012;2023-06-19T05:27:34;21.40;99.90
6421;DHT22;3243;50.958;7.012;2023-06-19T05:30:01;21.50;99.90
6421;DHT22;3243;50.958;7.012;2023-06-19T05:32:27;21.50;99.90
6421;DHT22;3243;50.958;7.012;2023-06-19T05:34:54;21.50;99.90
6421;DHT22;3243;50.958;7.012;2023-06-19T05:37:21;21.60;99.90
6421;DHT22;3243;50.958;7.012;2023-06-19T05:39:49;21.50;99.90
6421;DHT22;3243;50.958;7.012;2023-06-19T05:42:15;21.50;99.90
6421;DHT22;3243;50.958;7.012;2023-06-19T05:44:42;21.60;99.90
6421;DHT22;3243;50.958;7.012;2023-06-19T05:47:09;21.60;99.90
6421;DHT22;3243;50.958;7.012;2023-06-19T05:49:36;21.80;99.90
6421;DHT22;3243;50.958;7.012;2023-06-19T05:52:02;22.10;99.90
6421;DHT22;3243;50.958;7.012;2023-06-19T05:54:29;22.10;99.90
6421;DHT22;3243;50.958;7.012;2023-06-19T05:56:56;22.00;99.90
6421;DHT22;3243;50.958;7.012;2023-06-19T05:59:23;22.40;99.90
6421;DHT22;3243;50.958;7.012;2023-06-19T06:01:49;22.40;99.90
6421;DHT22;3243;50.958;7.012;2023-06-19T06:04:19;23.30;99.90
6421;DHT22;3243;50.958;7.012;2023-06-19T06:06:48;23.80;99.90
6421;DHT22;3243;50.958;7.012;2023-06-19T06:09:15;24.80;99.90
6421;DHT22;3243;50.958;7.012;2023-06-19T06:11:42;25.30;99.90
6421;DHT22;3243;50.958;7.012;2023-06-19T06:14:09;25.70;99.90
6421;DHT22;3243;50.958;7.012;2023-06-19T06:16:39;25.80;99.90
6421;DHT22;3243;50.958;7.012;2023-06-19T06:19:06;26.30;99.90
6421;DHT22;3243;50.958;7.012;2023-06-19T06:21:33;27.10;99.90
6421;DHT22;3243;50.958;7.012;2023-06-19T06:24:01;27.80;99.90
6421;DHT22;3243;50.958;7.012;2023-06-19T06:26:28;27.10;99.90
6421;DHT22;3243;50.958;7.012;2023-06-19T06:28:55;25.60;99.90
6421;DHT22;3243;50.958;7.012;2023-06-19T06:31:22;25.00;99.90
6421;DHT22;3243;50.958;7.012;2023-06-19T06:33:49;24.90;99.90
6421;DHT22;3243;50.958;7.012;2023-06-19T06:36:16;24.70;99.90
6421;DHT22;3243;50.958;7.012;2023-06-19T06:39:01;24.70;99.90
6421;DHT22;3243;50.958;7.012;2023-06-19T06:41:28;24.60;99.90
6421;DHT22;3243;50.958;7.012;2023-06-19T06:46:22;24.10;99.90
6421;DHT22;3243;50.958;7.012;2023-06-19T06:48:49;23.90;99.90
6421;DHT22;3243;50.958;7.012;2023-06-19T07:01:05;25.70;99.90
6421;DHT22;3243;50.958;7.012;2023-06-19T07:03:32;25.80;99.90
6421;DHT22;3243;50.958;7.012;2023-06-19T07:06:00;28.10;99.90
6421;DHT22;3243;50.958;7.012;2023-06-19T07:08:27;28.20;99.90
6421;DHT22;3243;50.958;7.012;2023-06-19T07:10:54;28.40;99.90
6421;DHT22;3243;50.958;7.012;2023-06-19T07:13:21;27.80;99.90
6421;DHT22;3243;50.958;7.012;2023-06-19T07:15:47;27.70;99.90
6421;DHT22;3243;50.958;7.012;2023-06-19T07:18:14;27.30;99.90
6421;DHT22;3243;50.958;7.012;2023-06-19T07:23:09;26.30;99.90
6421;DHT22;3243;50.958;7.012;2023-06-19T07:25:36;26.30;99.90
6421;DHT22;3243;50.958;7.012;2023-06-19T07:28:03;26.20;99.90
6421;DHT22;3243;50.958;7.012;2023-06-19T07:30:31;26.00;99.90
6421;DHT22;3243;50.958;7.012;2023-06-19T07:32:58;25.90;99.90
6421;DHT22;3243;50.958;7.012;2023-06-19T07:35:25;26.40;99.90
6421;DHT22;3243;50.958;7.012;2023-06-19T07:40:18;27.20;99.90
6421;DHT22;3243;50.958;7.012;2023-06-19T07:42:45;27.20;99.90
6421;DHT22;3243;50.958;7.012;2023-06-19T07:45:12;27.20;99.90
6421;DHT22;3243;50.958;7.012;2023-06-19T07:50:07;26.80;99.90
6421;DHT22;3243;50.958;7.012;2023-06-19T07:52:34;26.60;99.90
6421;DHT22;3243;50.958;7.012;2023-06-19T07:55:02;26.30;99.90
6421;DHT22;3243;50.958;7.012;2023-06-19T07:57:29;26.30;99.90
6421;DHT22;3243;50.958;7.012;2023-06-19T07:59:56;26.30;99.90
6421;DHT22;3243;50.958;7.012;2023-06-19T08:02:22;26.30;99.90
6421;DHT22;3243;50.958;7.012;2023-06-19T08:09:44;25.90;99.90
6421;DHT22;3243;50.958;7.012;2023-06-19T08:14:44;26.20;99.90
6421;DHT22;3243;50.958;7.012;2023-06-19T08:17:11;26.30;99.90
6421;DHT22;3243;50.958;7.012;2023-06-19T08:22:06;26.30;99.90
6421;DHT22;3243;50.958;7.012;2023-06-19T08:31:54;26.90;99.90
6421;DHT22;3243;50.958;7.012;2023-06-19T08:34:21;27.00;99.90
6421;DHT22;3243;50.958;7.012;2023-06-19T08:36:48;26.70;99.90
6421;DHT22;3243;50.958;7.012;2023-06-19T08:39:15;26.50;99.90
6421;DHT22;3243;50.958;7.012;2023-06-19T08:46:36;26.50;99.90
6421;DHT22;3243;50.958;7.012;2023-06-19T08:49:08;27.00;99.90
6421;DHT22;3243;50.958;7.012;2023-06-19T08:51:37;27.10;99.90
6421;DHT22;3243;50.958;7.012;2023-06-19T08:54:06;26.60;99.90
6421;DHT22;3243;50.958;7.012;2023-06-19T08:56:34;26.90;99.90
6421;DHT22;3243;50.958;7.012;2023-06-19T08:59:17;26.60;99.90
6421;DHT22;3243;50.958;7.012;2023-06-19T09:01:52;26.70;99.90
6421;DHT22;3243;50.958;7.012;2023-06-19T09:04:25;26.70;99.90
6421;DHT22;3243;50.958;7.012;2023-06-19T09:06:55;26.60;99.90
6421;DHT22;3243;50.958;7.012;2023-06-19T09:09:24;26.80;99.90
6421;DHT22;3243;50.958;7.012;2023-06-19T09:12:08;27.10;99.90
6421;DHT22;3243;50.958;7.012;2023-06-19T09:17:09;27.10;99.90
6421;DHT22;3243;50.958;7.012;2023-06-19T09:22:07;26.80;99.90
6421;DHT22;3243;50.958;7.012;2023-06-19T09:24:39;26.60;99.90
6421;DHT22;3243;50.958;7.012;2023-06-19T09:32:33;27.20;99.90
6421;DHT22;3243;50.958;7.012;2023-06-19T09:35:00;27.20;99.90
6421;DHT22;3243;50.958;7.012;2023-06-19T09:37:29;27.40;99.90
6421;DHT22;3243;50.958;7.012;2023-06-19T09:39:58;27.20;99.90
6421;DHT22;3243;50.958;7.012;2023-06-19T09:42:36;27.00;99.90
6421;DHT22;3243;50.958;7.012;2023-06-19T09:45:08;26.90;99.90
6421;DHT22;3243;50.958;7.012;2023-06-19T09:47:38;27.20;99.90
6421;DHT22;3243;50.958;7.012;2023-06-19T09:50:06;27.40;99.90
6421;DHT22;3243;50.958;7.012;2023-06-19T09:52:34;27.60;99.90
6421;DHT22;3243;50.958;7.012;2023-06-19T09:55:03;27.80;99.90
6421;DHT22;3243;50.958;7.012;2023-06-19T09:57:32;27.70;99.90
6421;DHT22;3243;50.958;7.012;2023-06-19T09:59:59;27.80;99.90
6421;DHT22;3243;50.958;7.012;2023-06-19T10:02:36;27.60;99.90
6421;DHT22;3243;50.958;7.012;2023-06-19T10:05:05;27.40;99.90
6421;DHT22;3243;50.958;7.012;2023-06-19T10:07:36;27.50;99.90
6421;DHT22;3243;50.958;7.012;2023-06-19T10:10:05;27.50;99.90
6421;DHT22;3243;50.958;7.012;2023-06-19T10:12:46;27.50;99.90
6421;DHT22;3243;50.958;7.012;2023-06-19T10:17:48;27.30;99.90
6421;DHT22;3243;50.958;7.012;2023-06-19T10:20:35;27.30;99.90
6421;DHT22;3243;50.958;7.012;2023-06-19T10:23:16;27.30;99.90
6421;DHT22;3243;50.958;7.012;2023-06-19T10:30:58;27.00;99.90
6421;DHT22;3243;50.958;7.012;2023-06-19T10:33:28;26.80;99.90
6421;DHT22;3243;50.958;7.012;2023-06-19T10:35:55;27.00;99.90
6421;DHT22;3243;50.958;7.012;2023-06-19T10:40:49;27.10;99.90
6421;DHT22;3243;50.958;7.012;2023-06-19T10:43:23;27.40;99.90
6421;DHT22;3243;50.958;7.012;2023-06-19T10:45:58;27.40;99.90
6421;DHT22;3243;50.958;7.012;2023-06-19T10:50:56;27.90;99.90
6421;DHT22;3243;50.958;7.012;2023-06-19T10:53:28;28.10;99.90
6421;DHT22;3243;50.958;7.012;2023-06-19T10:56:00;28.40;99.90
6421;DHT22;3243;50.958;7.012;2023-06-19T10:58:28;28.70;99.90
6421;DHT22;3243;50.958;7.012;2023-06-19T11:00:55;28.80;99.90
6421;DHT22;3243;50.958;7.012;2023-06-19T11:03:22;28.90;99.90
6421;DHT22;3243;50.958;7.012;2023-06-19T11:05:49;29.10;99.90
6421;DHT22;3243;50.958;7.012;2023-06-19T11:08:20;28.70;99.90
6421;DHT22;3243;50.958;7.012;2023-06-19T11:10:48;28.90;99.90
6421;DHT22;3243;50.958;7.012;2023-06-19T11:13:19;28.70;99.90
6421;DHT22;3243;50.958;7.012;2023-06-19T11:15:49;27.50;99.90
6421;DHT22;3243;50.958;7.012;2023-06-19T11:18:17;28.70;99.90
6421;DHT22;3243;50.958;7.012;2023-06-19T11:20:51;28.90;99.90
6421;DHT22;3243;50.958;7.012;2023-06-19T11:23:26;28.70;99.90
6421;DHT22;3243;50.958;7.012;2023-06-19T11:25:53;28.60;99.90
6421;DHT22;3243;50.958;7.012;2023-06-19T11:28:20;28.60;99.90
6421;DHT22;3243;50.958;7.012;2023-06-19T11:31:00;28.50;99.90
6421;DHT22;3243;50.958;7.012;2023-06-19T11:33:28;28.30;99.90
6421;DHT22;3243;50.958;7.012;2023-06-19T11:36:00;28.30;99.90
6421;DHT22;3243;50.958;7.012;2023-06-19T11:40:55;27.90;99.90
6421;DHT22;3243;50.958;7.012;2023-06-19T11:43:30;27.90;99.90
6421;DHT22;3243;50.958;7.012;2023-06-19T11:46:04;27.80;99.90
6421;DHT22;3243;50.958;7.012;2023-06-19T11:48:31;27.90;99.90
6421;DHT22;3243;50.958;7.012;2023-06-19T11:58:19;28.30;99.90
6421;DHT22;3243;50.958;7.012;2023-06-19T12:00:48;28.50;99.90
6421;DHT22;3243;50.958;7.012;2023-06-19T12:03:15;28.50;99.90
6421;DHT22;3243;50.958;7.012;2023-06-19T12:05:42;28.60;99.90
6421;DHT22;3243;50.958;7.012;2023-06-19T12:08:09;28.80;99.90
6421;DHT22;3243;50.958;7.012;2023-06-19T12:10:36;28.50;99.90
6421;DHT22;3243;50.958;7.012;2023-06-19T12:13:03;28.50;99.90
6421;DHT22;3243;50.958;7.012;2023-06-19T12:15:29;27.10;99.90
6421;DHT22;3243;50.958;7.012;2023-06-19T12:17:56;28.80;99.90
6421;DHT22;3243;50.958;7.012;2023-06-19T12:20:25;28.80;99.90
6421;DHT22;3243;50.958;7.012;2023-06-19T12:22:52;28.80;99.90
6421;DHT22;3243;50.958;7.012;2023-06-19T12:25:19;29.10;99.90
6421;DHT22;3243;50.958;7.012;2023-06-19T12:27:46;29.00;99.90
6421;DHT22;3243;50.958;7.012;2023-06-19T12:30:13;29.10;99.90
6421;DHT22;3243;50.958;7.012;2023-06-19T12:32:39;29.10;99.90
6421;DHT22;3243;50.958;7.012;2023-06-19T12:35:06;28.90;99.90
6421;DHT22;3243;50.958;7.012;2023-06-19T12:37:34;29.00;99.90
6421;DHT22;3243;50.958;7.012;2023-06-19T12:40:01;28.80;99.90
6421;DHT22;3243;50.958;7.012;2023-06-19T12:42:27;28.90;99.90
6421;DHT22;3243;50.958;7.012;2023-06-19T12:44:54;28.80;99.90
6421;DHT22;3243;50.958;7.012;2023-06-19T12:47:21;28.80;99.90
6421;DHT22;3243;50.958;7.012;2023-06-19T12:49:48;28.90;99.90
6421;DHT22;3243;50.958;7.012;2023-06-19T12:52:15;29.20;99.90
6421;DHT22;3243;50.958;7.012;2023-06-19T12:54:41;29.10;99.90
6421;DHT22;3243;50.958;7.012;2023-06-19T12:57:09;29.10;99.90
6421;DHT22;3243;50.958;7.012;2023-06-19T12:59:35;29.40;99.90
6421;DHT22;3243;50.958;7.012;2023-06-19T13:02:02;29.40;99.90
6421;DHT22;3243;50.958;7.012;2023-06-19T13:04:29;29.60;99.90
6421;DHT22;3243;50.958;7.012;2023-06-19T13:06:56;29.70;99.90
6421;DHT22;3243;50.958;7.012;2023-06-19T13:09:23;29.80;99.90
6421;DHT22;3243;50.958;7.012;2023-06-19T13:11:50;29.80;99.90
6421;DHT22;3243;50.958;7.012;2023-06-19T13:14:17;29.70;99.90
6421;DHT22;3243;50.958;7.012;2023-06-19T13:16:44;29.80;99.90
6421;DHT22;3243;50.958;7.012;2023-06-19T13:19:15;30.00;99.90
6421;DHT22;3243;50.958;7.012;2023-06-19T13:21:42;30.10;99.90
6421;DHT22;3243;50.958;7.012;2023-06-19T13:24:09;30.40;99.90
6421;DHT22;3243;50.958;7.012;2023-06-19T13:26:36;30.50;99.90
6421;DHT22;3243;50.958;7.012;2023-06-19T13:29:03;30.30;99.90
6421;DHT22;3243;50.958;7.012;2023-06-19T13:31:30;30.30;99.90
6421;DHT22;3243;50.958;7.012;2023-06-19T13:33:57;30.20;99.90
6421;DHT22;3243;50.958;7.012;2023-06-19T13:36:25;30.00;99.90
6421;DHT22;3243;50.958;7.012;2023-06-19T13:38:53;29.60;99.90
6421;DHT22;3243;50.958;7.012;2023-06-19T13:41:20;29.80;99.90
6421;DHT22;3243;50.958;7.012;2023-06-19T13:43:51;29.80;99.90
6421;DHT22;3243;50.958;7.012;2023-06-19T13:46:20;29.80;99.90
6421;DHT22;3243;50.958;7.012;2023-06-19T13:48:48;29.70;99.90
6421;DHT22;3243;50.958;7.012;2023-06-19T13:51:19;29.40;99.90
6421;DHT22;3243;50.958;7.012;2023-06-19T13:53:46;29.30;99.90
6421;DHT22;3243;50.958;7.012;2023-06-19T13:56:13;29.60;99.90
6421;DHT22;3243;50.958;7.012;2023-06-19T13:58:40;29.50;99.90
6421;DHT22;3243;50.958;7.012;2023-06-19T14:01:07;29.50;99.90
6421;DHT22;3243;50.958;7.012;2023-06-19T14:03:37;29.50;99.90
6421;DHT22;3243;50.958;7.012;2023-06-19T14:06:04;30.10;99.90
6421;DHT22;3243;50.958;7.012;2023-06-19T14:08:31;29.20;99.90
6421;DHT22;3243;50.958;7.012;2023-06-19T14:10:58;29.30;99.90
6421;DHT22;3243;50.958;7.012;2023-06-19T14:13:25;29.40;99.90
6421;DHT22;3243;50.958;7.012;2023-06-19T14:15:53;29.50;99.90
6421;DHT22;3243;50.958;7.012;2023-06-19T14:18:19;29.50;99.90
6421;DHT22;3243;50.958;7.012;2023-06-19T14:20:46;29.50;99.90
6421;DHT22;3243;50.958;7.012;2023-06-19T14:23:13;29.40;99.90
6421;DHT22;3243;50.958;7.012;2023-06-19T14:25:40;29.20;99.90
6421;DHT22;3243;50.958;7.012;2023-06-19T14:28:10;29.20;99.90
6421;DHT22;3243;50.958;7.012;2023-06-19T14:30:37;29.30;99.90
6421;DHT22;3243;50.958;7.012;2023-06-19T14:33:05;29.20;99.90
6421;DHT22;3243;50.958;7.012;2023-06-19T14:35:32;29.20;99.90
6421;DHT22;3243;50.958;7.012;2023-06-19T14:37:59;29.20;99.90
6421;DHT22;3243;50.958;7.012;2023-06-19T14:40:25;28.70;99.90
6421;DHT22;3243;50.958;7.012;2023-06-19T14:42:53;28.70;99.90
6421;DHT22;3243;50.958;7.012;2023-06-19T14:45:19;28.90;99.90
6421;DHT22;3243;50.958;7.012;2023-06-19T14:47:46;29.00;99.90
6421;DHT22;3243;50.958;7.012;2023-06-19T14:50:13;29.10;99.90
6421;DHT22;3243;50.958;7.012;2023-06-19T14:52:40;29.20;99.90
6421;DHT22;3243;50.958;7.012;2023-06-19T14:55:07;29.20;99.90
6421;DHT22;3243;50.958;7.012;2023-06-19T14:57:35;29.30;99.90
6421;DHT22;3243;50.958;7.012;2023-06-19T15:00:02;29.30;99.90
6421;DHT22;3243;50.958;7.012;2023-06-19T15:02:32;29.30;99.90
6421;DHT22;3243;50.958;7.012;2023-06-19T15:04:58;29.20;99.90
6421;DHT22;3243;50.958;7.012;2023-06-19T15:07:33;29.30;99.90
6421;DHT22;3243;50.958;7.012;2023-06-19T15:09:59;29.30;99.90
6421;DHT22;3243;50.958;7.012;2023-06-19T15:12:26;29.20;99.90
6421;DHT22;3243;50.958;7.012;2023-06-19T15:14:53;29.30;99.90
6421;DHT22;3243;50.958;7.012;2023-06-19T15:17:20;29.30;99.90
6421;DHT22;3243;50.958;7.012;2023-06-19T15:19:47;29.30;99.90
6421;DHT22;3243;50.958;7.012;2023-06-19T15:22:14;29.10;99.90
6421;DHT22;3243;50.958;7.012;2023-06-19T15:24:41;29.20;99.90
6421;DHT22;3243;50.958;7.012;2023-06-19T15:27:08;29.30;99.90
6421;DHT22;3243;50.958;7.012;2023-06-19T15:29:34;29.30;99.90
6421;DHT22;3243;50.958;7.012;2023-06-19T15:32:02;29.30;99.90
6421;DHT22;3243;50.958;7.012;2023-06-19T15:34:28;29.40;99.90
6421;DHT22;3243;50.958;7.012;2023-06-19T15:36:55;29.40;99.90
6421;DHT22;3243;50.958;7.012;2023-06-19T15:39:22;29.30;99.90
6421;DHT22;3243;50.958;7.012;2023-06-19T15:41:49;29.30;99.90
6421;DHT22;3243;50.958;7.012;2023-06-19T15:44:16;29.40;99.90
6421;DHT22;3243;50.958;7.012;2023-06-19T15:46:43;29.50;99.90
6421;DHT22;3243;50.958;7.012;2023-06-19T15:49:12;29.50;99.90
6421;DHT22;3243;50.958;7.012;2023-06-19T15:51:39;29.50;99.90
6421;DHT22;3243;50.958;7.012;2023-06-19T15:54:06;29.50;99.90
6421;DHT22;3243;50.958;7.012;2023-06-19T15:56:33;29.50;99.90
6421;DHT22;3243;50.958;7.012;2023-06-19T15:59:00;29.40;99.90
6421;DHT22;3243;50.958;7.012;2023-06-19T16:01:27;29.40;99.90
6421;DHT22;3243;50.958;7.012;2023-06-19T16:03:53;29.40;99.90
6421;DHT22;3243;50.958;7.012;2023-06-19T16:06:20;29.30;99.90
6421;DHT22;3243;50.958;7.012;2023-06-19T16:08:47;29.30;99.90
6421;DHT22;3243;50.958;7.012;2023-06-19T16:11:17;29.20;99.90
6421;DHT22;3243;50.958;7.012;2023-06-19T16:13:44;29.00;99.90
6421;DHT22;3243;50.958;7.012;2023-06-19T16:16:11;29.10;99.90
6421;DHT22;3243;50.958;7.012;2023-06-19T16:18:37;29.20;99.90
6421;DHT22;3243;50.958;7.012;2023-06-19T16:21:04;29.30;99.90
6421;DHT22;3243;50.958;7.012;2023-06-19T16:23:31;29.40;99.90
6421;DHT22;3243;50.958;7.012;2023-06-19T16:25:57;29.30;99.90
6421;DHT22;3243;50.958;7.012;2023-06-19T16:28:24;29.30;99.90
6421;DHT22;3243;50.958;7.012;2023-06-19T16:30:51;29.40;99.90
6421;DHT22;3243;50.958;7.012;2023-06-19T16:33:18;29.40;99.90
6421;DHT22;3243;50.958;7.012;2023-06-19T16:35:45;29.20;99.90
6421;DHT22;3243;50.958;7.012;2023-06-19T16:38:12;29.20;99.90
6421;DHT22;3243;50.958;7.012;2023-06-19T16:40:38;29.20;99.90
6421;DHT22;3243;50.958;7.012;2023-06-19T16:43:05;29.20;99.90
6421;DHT22;3243;50.958;7.012;2023-06-19T16:45:32;28.90;99.90
6421;DHT22;3243;50.958;7.012;2023-06-19T16:47:59;28.90;99.90
6421;DHT22;3243;50.958;7.012;2023-06-19T16:50:25;29.10;99.90
6421;DHT22;3243;50.958;7.012;2023-06-19T16:52:53;29.10;99.90
6421;DHT22;3243;50.958;7.012;2023-06-19T16:55:20;29.20;99.90
6421;DHT22;3243;50.958;7.012;2023-06-19T16:57:49;29.10;99.90
6421;DHT22;3243;50.958;7.012;2023-06-19T17:00:16;29.20;99.90
6421;DHT22;3243;50.958;7.012;2023-06-19T17:02:43;29.10;99.90
6421;DHT22;3243;50.958;7.012;2023-06-19T17:05:10;29.00;99.90
6421;DHT22;3243;50.958;7.012;2023-06-19T17:07:37;29.00;99.90
6421;DHT22;3243;50.958;7.012;2023-06-19T17:10:07;29.00;99.90
6421;DHT22;3243;50.958;7.012;2023-06-19T17:12:35;29.00;99.90
6421;DHT22;3243;50.958;7.012;2023-06-19T17:15:02;29.10;99.90
6421;DHT22;3243;50.958;7.012;2023-06-19T17:17:28;29.10;99.90
6421;DHT22;3243;50.958;7.012;2023-06-19T17:19:55;28.90;99.90
6421;DHT22;3243;50.958;7.012;2023-06-19T17:22:22;29.00;99.90